createdAt,value
2018-09-14T00:00:35.921Z,2.90
2018-09-14T00:03:12.228Z,3.10
2018-09-14T00:05:47.116Z,2.90
2018-09-14T00:08:21.932Z,3.30
2018-09-14T00:10:56.376Z,3.40
2018-09-14T00:13:31.013Z,3.20
2018-09-14T00:16:06.187Z,3.50
2018-09-14T00:18:40.954Z,3.63
2018-09-14T00:21:15.668Z,3.70
2018-09-14T00:23:50.061Z,3.90
2018-09-14T00:26:24.397Z,3.90
2018-09-14T00:28:59.447Z,5.03
2018-09-14T00:31:33.799Z,5.97
2018-09-14T00:34:08.193Z,10.37
2018-09-14T00:36:42.928Z,11.70
2018-09-14T00:39:17.708Z,12.03
2018-09-14T00:41:52.537Z,12.40
2018-09-14T00:44:27.105Z,12.83
2018-09-14T00:47:01.868Z,13.67
2018-09-14T00:49:36.140Z,14.20
2018-09-14T00:52:10.600Z,13.77
2018-09-14T00:54:45.682Z,14.97
2018-09-14T00:57:20.266Z,14.17
2018-09-14T00:59:54.616Z,16.27
2018-09-14T01:02:51.199Z,17.00
2018-09-14T01:05:26.388Z,16.70
2018-09-14T01:08:01.047Z,19.70
2018-09-14T01:10:35.636Z,20.43
2018-09-14T01:13:10.138Z,20.33
2018-09-14T01:15:44.952Z,21.40
2018-09-14T01:18:20.129Z,20.53
2018-09-14T01:20:55.252Z,21.17
2018-09-14T01:23:29.728Z,20.23
2018-09-14T01:26:04.445Z,22.57
2018-09-14T01:28:38.772Z,22.57
2018-09-14T01:31:13.231Z,23.13
2018-09-14T01:33:47.844Z,23.87
2018-09-14T01:36:22.212Z,22.93
2018-09-14T01:38:56.524Z,24.47
2018-09-14T01:41:30.995Z,23.73
2018-09-14T01:44:05.630Z,23.47
2018-09-14T01:46:40.759Z,22.70
2018-09-14T01:49:15.265Z,20.87
2018-09-14T01:51:49.867Z,23.30
2018-09-14T01:54:25.193Z,21.00
2018-09-14T01:56:59.620Z,22.43
2018-09-14T01:59:34.323Z,23.00
2018-09-14T02:02:09.036Z,21.10
2018-09-14T02:04:43.522Z,21.80
2018-09-14T02:07:17.859Z,21.40
2018-09-14T02:09:52.372Z,20.20
2018-09-14T02:12:26.966Z,23.63
2018-09-14T02:15:01.468Z,23.50
2018-09-14T02:17:35.828Z,20.60
2018-09-14T02:20:10.297Z,18.27
2018-09-14T02:22:45.025Z,17.37
2018-09-14T02:25:20.015Z,17.80
2018-09-14T02:27:54.459Z,17.30
2018-09-14T02:30:28.989Z,19.70
2018-09-14T02:33:03.878Z,18.33
2018-09-14T02:35:38.352Z,19.63
2018-09-14T02:38:12.737Z,18.00
2018-09-14T02:40:47.201Z,18.53
2018-09-14T02:43:21.697Z,19.10
2018-09-14T02:45:56.213Z,17.63
2018-09-14T02:48:30.637Z,17.03
2018-09-14T02:51:05.556Z,15.30
2018-09-14T02:53:40.141Z,15.70
2018-09-14T02:56:14.888Z,15.40
2018-09-14T02:58:49.658Z,14.53
2018-09-14T03:01:24.137Z,14.97
2018-09-14T03:03:58.788Z,13.73
2018-09-14T03:06:33.261Z,13.57
2018-09-14T03:09:08.385Z,14.67
2018-09-14T03:11:43.116Z,14.23
2018-09-14T03:14:17.833Z,15.40
2018-09-14T03:16:52.348Z,15.03
2018-09-14T03:19:26.973Z,15.50
2018-09-14T03:22:01.461Z,13.77
2018-09-14T03:24:35.927Z,13.93
2018-09-14T03:27:10.456Z,12.87
2018-09-14T03:29:44.956Z,13.07
2018-09-14T03:32:19.338Z,12.63
2018-09-14T03:34:54.071Z,13.23
2018-09-14T03:37:28.524Z,12.30
2018-09-14T03:40:23.597Z,12.60
2018-09-14T03:42:58.218Z,12.70
2018-09-14T03:45:32.703Z,12.40
2018-09-14T03:48:07.776Z,13.13
2018-09-14T03:50:42.301Z,12.90
2018-09-14T03:53:16.769Z,11.80
2018-09-14T03:55:51.385Z,8.93
2018-09-14T03:58:26.040Z,7.97
2018-09-14T04:01:00.596Z,8.10
2018-09-14T04:03:34.909Z,8.27
2018-09-14T04:06:09.188Z,9.60
2018-09-14T04:08:43.624Z,8.60
2018-09-14T04:11:17.935Z,8.57
2018-09-14T04:13:52.254Z,8.40
2018-09-14T04:16:26.548Z,8.40
2018-09-14T04:19:03.577Z,8.10
2018-09-14T04:21:38.388Z,9.23
2018-09-14T04:24:12.894Z,9.17
2018-09-14T04:26:47.153Z,9.00
2018-09-14T04:29:21.523Z,9.27
2018-09-14T04:31:56.051Z,8.97
2018-09-14T04:34:30.561Z,8.90
2018-09-14T04:37:05.203Z,9.27
2018-09-14T04:39:39.935Z,9.30
2018-09-14T04:42:14.711Z,10.27
2018-09-14T04:44:49.132Z,9.73
2018-09-14T04:47:23.515Z,9.70
2018-09-14T04:49:58.099Z,9.90
2018-09-14T04:52:33.100Z,11.27
2018-09-14T04:55:07.794Z,10.17
2018-09-14T04:57:42.432Z,11.10
2018-09-14T05:00:17.258Z,10.23
2018-09-14T05:02:52.063Z,10.20
2018-09-14T05:05:26.493Z,10.90
2018-09-14T05:08:00.998Z,10.40
2018-09-14T05:10:35.721Z,10.90
2018-09-14T05:13:10.875Z,9.90
2018-09-14T05:15:45.416Z,10.33
2018-09-14T05:18:19.940Z,10.07
2018-09-14T05:20:54.467Z,9.50
2018-09-14T05:23:29.045Z,8.50
2018-09-14T05:26:03.776Z,9.27
2018-09-14T05:28:38.445Z,9.57
2018-09-14T05:31:12.989Z,9.27
2018-09-14T05:33:47.384Z,9.57
2018-09-14T05:36:21.722Z,9.13
2018-09-14T05:38:56.190Z,8.60
2018-09-14T05:41:30.649Z,9.50
2018-09-14T05:44:06.006Z,9.73
2018-09-14T05:46:40.712Z,10.13
2018-09-14T05:49:15.141Z,9.77
2018-09-14T05:51:49.840Z,9.70
2018-09-14T05:54:24.291Z,9.40
2018-09-14T05:56:59.328Z,10.10
2018-09-14T05:59:33.729Z,9.67
2018-09-14T06:02:08.920Z,9.60
2018-09-14T06:04:43.369Z,9.37
2018-09-14T06:07:18.080Z,9.93
2018-09-14T06:09:52.495Z,9.20
2018-09-14T06:12:27.136Z,8.63
2018-09-14T06:15:01.893Z,8.80
2018-09-14T06:17:36.711Z,8.00
2018-09-14T06:20:11.036Z,8.93
2018-09-14T06:22:45.729Z,9.03
2018-09-14T06:25:20.472Z,8.70
2018-09-14T06:27:55.109Z,9.00
2018-09-14T06:30:29.571Z,9.30
2018-09-14T06:33:04.173Z,11.17
2018-09-14T06:35:38.668Z,11.97
2018-09-14T06:38:12.992Z,20.37
2018-09-14T06:40:47.584Z,12.73
2018-09-14T06:43:22.524Z,9.30
2018-09-14T06:45:57.004Z,8.77
2018-09-14T06:48:31.580Z,8.60
2018-09-14T06:51:06.272Z,9.50
2018-09-14T06:53:40.665Z,7.57
2018-09-14T06:56:15.755Z,6.77
2018-09-14T06:58:50.337Z,6.60
2018-09-14T07:01:24.756Z,6.67
2018-09-14T07:03:59.565Z,6.90
2018-09-14T07:06:34.348Z,6.87
2018-09-14T07:09:11.116Z,7.50
2018-09-14T07:11:46.054Z,7.63
2018-09-14T07:14:21.682Z,8.00
2018-09-14T07:16:57.174Z,7.90
2018-09-14T07:19:38.285Z,7.90
2018-09-14T07:22:16.554Z,8.40
2018-09-14T07:24:51.405Z,7.67
2018-09-14T07:27:25.868Z,8.20
2018-09-14T07:30:00.312Z,8.10
2018-09-14T07:32:34.976Z,8.13
2018-09-14T07:35:09.605Z,7.60
2018-09-14T07:37:43.928Z,8.53
2018-09-14T07:40:25.868Z,7.83
2018-09-14T07:43:00.612Z,7.00
2018-09-14T07:45:35.009Z,7.60
2018-09-14T07:48:10.161Z,7.43
2018-09-14T07:50:44.859Z,6.77
2018-09-14T07:53:19.595Z,6.77
2018-09-14T07:55:54.595Z,7.47
2018-09-14T07:58:31.794Z,7.90
2018-09-14T08:01:07.104Z,7.90
2018-09-14T08:03:42.010Z,8.77
2018-09-14T08:06:16.902Z,8.80
2018-09-14T08:08:51.881Z,8.67
2018-09-14T08:11:26.852Z,8.10
2018-09-14T08:14:03.231Z,7.80
2018-09-14T08:16:39.653Z,7.23
2018-09-14T08:19:14.799Z,7.90
2018-09-14T08:21:49.603Z,5.70
2018-09-14T08:24:27.728Z,5.63
2018-09-14T08:27:03.061Z,5.40
2018-09-14T08:29:38.908Z,5.50
2018-09-14T08:32:13.998Z,5.33
2018-09-14T08:34:48.776Z,5.00
2018-09-14T08:37:23.197Z,4.87
2018-09-14T08:39:57.679Z,5.37
2018-09-14T08:42:32.830Z,4.60
2018-09-14T08:45:07.364Z,4.47
2018-09-14T08:47:42.514Z,4.87
2018-09-14T08:50:17.191Z,13.00
2018-09-14T08:52:51.993Z,10.80
2018-09-14T08:55:26.284Z,8.07
2018-09-14T08:58:00.942Z,6.37
2018-09-14T09:00:41.464Z,8.03
2018-09-14T09:03:16.060Z,4.73
2018-09-14T09:05:50.562Z,4.57
2018-09-14T09:08:24.992Z,14.40
2018-09-14T09:10:59.537Z,5.83
2018-09-14T09:13:34.101Z,19.27
2018-09-14T09:16:10.673Z,5.80
2018-09-14T09:18:45.237Z,3.63
2018-09-14T09:21:19.893Z,4.57
2018-09-14T09:23:54.425Z,4.13
2018-09-14T09:26:29.868Z,4.07
2018-09-14T09:29:05.180Z,4.00
2018-09-14T09:31:39.661Z,7.80
2018-09-14T09:34:14.090Z,6.00
2018-09-14T09:36:48.721Z,4.00
2018-09-14T09:39:23.044Z,3.90
2018-09-14T09:41:58.620Z,4.43
2018-09-14T09:44:32.887Z,3.97
2018-09-14T09:47:07.447Z,4.33
2018-09-14T09:49:42.109Z,3.70
2018-09-14T09:52:16.786Z,4.77
2018-09-14T09:54:51.299Z,4.00
2018-09-14T09:57:25.733Z,4.13
2018-09-14T10:00:00.987Z,4.20
2018-09-14T10:02:38.939Z,4.53
2018-09-14T10:05:19.036Z,4.90
2018-09-14T10:07:53.583Z,4.20
2018-09-14T10:10:27.908Z,4.70
2018-09-14T10:13:02.671Z,4.30
2018-09-14T10:15:37.556Z,5.10
2018-09-14T10:18:11.907Z,4.43
2018-09-14T10:20:46.747Z,4.50
2018-09-14T10:23:21.779Z,4.20
2018-09-14T10:25:56.608Z,4.13
2018-09-14T10:28:30.967Z,4.80
2018-09-14T10:31:06.072Z,4.40
2018-09-14T10:33:40.414Z,3.77
2018-09-14T10:36:14.771Z,3.80
2018-09-14T10:38:49.667Z,4.10
2018-09-14T10:41:24.565Z,4.80
2018-09-14T10:43:59.364Z,4.33
2018-09-14T10:46:34.163Z,4.47
2018-09-14T10:49:08.654Z,4.57
2018-09-14T10:51:43.288Z,4.93
2018-09-14T10:54:17.688Z,4.47
2018-09-14T10:56:52.114Z,4.50
2018-09-14T10:59:26.759Z,4.87
2018-09-14T11:02:01.799Z,4.23
2018-09-14T11:04:36.605Z,4.17
2018-09-14T11:07:11.631Z,4.67
2018-09-14T11:09:46.376Z,4.40
2018-09-14T11:12:21.588Z,4.30
2018-09-14T11:14:55.915Z,4.77
2018-09-14T11:17:30.527Z,4.63
2018-09-14T11:20:05.208Z,4.00
2018-09-14T11:22:39.921Z,4.03
2018-09-14T11:25:15.228Z,4.20
2018-09-14T11:27:49.937Z,3.67
2018-09-14T11:30:24.577Z,4.30
2018-09-14T11:32:59.412Z,4.27
2018-09-14T11:35:34.339Z,4.00
2018-09-14T11:38:09.005Z,4.20
2018-09-14T11:40:43.609Z,4.17
2018-09-14T11:43:18.175Z,4.90
2018-09-14T11:45:52.700Z,4.50
2018-09-14T11:48:27.485Z,4.60
2018-09-14T11:51:01.956Z,4.17
2018-09-14T11:53:36.476Z,4.43
2018-09-14T11:56:11.684Z,4.93
2018-09-14T11:58:45.994Z,4.20
2018-09-14T12:01:20.523Z,4.20
2018-09-14T12:03:55.563Z,4.27
2018-09-14T12:06:30.371Z,4.43
2018-09-14T12:09:07.400Z,3.90
2018-09-14T12:11:42.364Z,3.63
2018-09-14T12:14:16.903Z,3.57
2018-09-14T12:16:51.364Z,3.60
2018-09-14T12:19:26.360Z,3.90
2018-09-14T12:22:01.134Z,3.03
2018-09-14T12:24:35.576Z,3.83
2018-09-14T12:27:10.237Z,3.87
2018-09-14T12:29:44.652Z,3.97
2018-09-14T12:32:19.841Z,3.53
2018-09-14T12:34:54.591Z,3.53
2018-09-14T12:37:28.944Z,3.90
2018-09-14T12:40:04.452Z,3.73
2018-09-14T12:42:40.088Z,4.07
2018-09-14T12:45:14.553Z,3.77
2018-09-14T12:47:48.859Z,3.80
2018-09-14T12:50:23.276Z,4.00
2018-09-14T12:52:57.560Z,3.90
2018-09-14T12:55:32.384Z,4.13
2018-09-14T12:58:07.384Z,3.60
2018-09-14T13:00:42.672Z,3.70
2018-09-14T13:03:17.039Z,3.73
2018-09-14T13:05:51.711Z,4.03
2018-09-14T13:08:26.227Z,3.80
2018-09-14T13:11:00.761Z,3.60
2018-09-14T13:13:35.316Z,3.77
2018-09-14T13:16:10.452Z,3.90
2018-09-14T13:18:45.095Z,3.40
2018-09-14T13:21:19.624Z,3.43
2018-09-14T13:23:54.992Z,3.30
2018-09-14T13:26:29.643Z,3.30
2018-09-14T13:29:04.056Z,3.40
2018-09-14T13:31:39.075Z,3.53
2018-09-14T13:34:13.634Z,3.73
2018-09-14T13:36:48.597Z,3.20
2018-09-14T13:39:23.761Z,3.40
2018-09-14T13:41:58.529Z,3.53
2018-09-14T13:44:33.885Z,3.30
2018-09-14T13:47:08.900Z,3.30
2018-09-14T13:49:43.344Z,3.37
2018-09-14T13:52:18.175Z,3.57
2018-09-14T13:54:52.610Z,3.10
2018-09-14T13:57:27.092Z,3.63
2018-09-14T14:00:02.741Z,3.60
2018-09-14T14:02:37.415Z,3.13
2018-09-14T14:05:12.735Z,3.17
2018-09-14T14:07:47.112Z,3.00
2018-09-14T14:10:22.326Z,3.77
2018-09-14T14:12:57.032Z,3.60
2018-09-14T14:15:31.631Z,3.43
2018-09-14T14:18:06.220Z,3.20
2018-09-14T14:20:41.006Z,3.60
2018-09-14T14:23:17.842Z,3.07
2018-09-14T14:25:53.087Z,3.40
2018-09-14T14:28:28.093Z,2.93
2018-09-14T14:31:03.700Z,3.13
2018-09-14T14:33:38.185Z,3.40
2018-09-14T14:36:12.892Z,2.90
2018-09-14T14:38:47.517Z,3.07
2018-09-14T14:41:22.425Z,3.20
2018-09-14T14:43:57.254Z,3.07
2018-09-14T14:46:31.536Z,3.70
2018-09-14T14:49:06.257Z,3.10
2018-09-14T14:51:40.818Z,3.20
2018-09-14T14:54:15.440Z,3.10
2018-09-14T14:56:50.016Z,2.93
2018-09-14T14:59:24.944Z,2.60
2018-09-14T15:01:59.662Z,2.80
2018-09-14T15:04:34.620Z,3.00
2018-09-14T15:07:09.436Z,3.20
2018-09-14T15:09:44.382Z,3.20
2018-09-14T15:12:18.847Z,3.23
2018-09-14T15:14:53.415Z,3.00
2018-09-14T15:17:28.008Z,2.77
2018-09-14T15:20:02.661Z,2.83
2018-09-14T15:22:37.868Z,3.30
2018-09-14T15:25:12.192Z,2.90
2018-09-14T15:27:46.678Z,3.10
2018-09-14T15:30:21.928Z,2.80
2018-09-14T15:32:56.770Z,2.80
2018-09-14T15:35:31.273Z,2.90
2018-09-14T15:38:05.927Z,2.83
2018-09-14T15:40:40.412Z,3.27
2018-09-14T15:43:14.791Z,3.50
2018-09-14T15:45:49.639Z,3.30
2018-09-14T15:48:24.045Z,2.97
2018-09-14T15:50:58.391Z,2.70
2018-09-14T15:53:33.671Z,3.00
2018-09-14T15:56:08.500Z,3.17
2018-09-14T15:58:43.214Z,3.00
2018-09-14T16:01:17.753Z,2.60
2018-09-14T16:03:52.430Z,3.00
2018-09-14T16:06:27.177Z,3.23
2018-09-14T16:09:02.292Z,3.00
2018-09-14T16:11:37.803Z,2.90
2018-09-14T16:14:12.255Z,2.83
2018-09-14T16:16:46.571Z,2.83
2018-09-14T16:19:21.131Z,3.17
2018-09-14T16:21:55.607Z,3.17
2018-09-14T16:24:30.072Z,2.90
2018-09-14T16:27:04.758Z,2.80
2018-09-14T16:29:39.244Z,3.50
2018-09-14T16:32:14.027Z,3.13
2018-09-14T16:34:48.333Z,3.13
2018-09-14T16:37:22.635Z,3.00
2018-09-14T16:39:57.287Z,3.37
2018-09-14T16:42:31.813Z,3.30
2018-09-14T16:45:07.019Z,3.43
2018-09-14T16:47:41.330Z,3.17
2018-09-14T16:50:16.360Z,3.40
2018-09-14T16:52:51.258Z,3.73
2018-09-14T16:55:25.739Z,3.70
2018-09-14T16:58:00.592Z,4.10
2018-09-14T17:00:35.199Z,4.00
2018-09-14T17:03:10.152Z,3.70
2018-09-14T17:05:44.571Z,4.03
2018-09-14T17:08:18.955Z,4.27
2018-09-14T17:10:53.542Z,4.10
2018-09-14T17:13:27.965Z,4.00
2018-09-14T17:16:03.439Z,4.20
2018-09-14T17:18:39.361Z,4.27
2018-09-14T17:21:14.532Z,4.43
2018-09-14T17:23:49.732Z,4.97
2018-09-14T17:26:24.132Z,4.70
2018-09-14T17:28:58.594Z,4.17
2018-09-14T17:31:33.599Z,4.60
2018-09-14T17:34:08.116Z,4.73
2018-09-14T17:36:42.584Z,5.20
2018-09-14T17:39:16.957Z,5.70
2018-09-14T17:41:51.380Z,5.30
2018-09-14T17:44:26.071Z,5.17
2018-09-14T17:47:00.699Z,5.40
2018-09-14T17:49:35.040Z,5.27
2018-09-14T17:52:09.960Z,5.43
2018-09-14T17:54:44.644Z,5.00
2018-09-14T17:57:19.308Z,5.30
2018-09-14T17:59:54.044Z,4.97
2018-09-14T18:02:28.487Z,5.63
2018-09-14T18:05:03.387Z,5.57
2018-09-14T18:07:38.471Z,5.30
2018-09-14T18:10:13.087Z,5.90
2018-09-14T18:12:48.059Z,6.13
2018-09-14T18:15:22.886Z,6.37
2018-09-14T18:17:57.360Z,6.50
2018-09-14T18:20:31.972Z,6.30
2018-09-14T18:23:07.243Z,6.50
2018-09-14T18:25:41.979Z,6.93
2018-09-14T18:28:16.868Z,7.17
2018-09-14T18:30:51.655Z,8.33
2018-09-14T18:33:26.349Z,8.60
2018-09-14T18:36:00.601Z,8.10
2018-09-14T18:38:36.916Z,8.80
2018-09-14T18:41:11.619Z,9.00
2018-09-14T18:43:46.148Z,8.63
2018-09-14T18:46:20.707Z,8.20
2018-09-14T18:48:55.248Z,8.33
2018-09-14T18:51:29.556Z,8.47
2018-09-14T18:54:04.507Z,8.13
2018-09-14T18:56:39.248Z,8.97
2018-09-14T18:59:14.688Z,8.67
2018-09-14T19:01:49.112Z,8.30
2018-09-14T19:04:24.040Z,7.70
2018-09-14T19:06:58.864Z,7.83
2018-09-14T19:09:33.351Z,8.37
2018-09-14T19:12:08.061Z,8.67
2018-09-14T19:14:42.720Z,9.23
2018-09-14T19:17:17.184Z,9.03
2018-09-14T19:19:52.074Z,9.17
2018-09-14T19:22:26.602Z,9.43
2018-09-14T19:25:01.445Z,9.33
2018-09-14T19:27:36.363Z,9.00
2018-09-14T19:30:10.696Z,8.83
2018-09-14T19:32:45.051Z,8.90
2018-09-14T19:35:19.667Z,8.53
2018-09-14T19:37:54.276Z,9.07
2018-09-14T19:40:29.071Z,8.73
2018-09-14T19:43:03.643Z,8.47
2018-09-14T19:45:38.530Z,9.27
2018-09-14T19:48:13.043Z,9.27
2018-09-14T19:50:48.867Z,9.10
2018-09-14T19:53:23.363Z,8.50
2018-09-14T19:55:59.273Z,8.43
2018-09-14T19:58:34.143Z,8.30
2018-09-14T20:01:10.851Z,9.00
2018-09-14T20:03:45.300Z,9.03
2018-09-14T20:06:19.972Z,9.03
2018-09-14T20:08:54.831Z,8.83
2018-09-14T20:11:29.572Z,9.10
2018-09-14T20:14:04.703Z,8.43
2018-09-14T20:16:39.683Z,8.57
2018-09-14T20:19:14.215Z,9.00
2018-09-14T20:21:49.383Z,8.77
2018-09-14T20:24:24.220Z,9.17
2018-09-14T20:26:58.603Z,9.43
2018-09-14T20:29:33.180Z,9.20
2018-09-14T20:32:08.035Z,9.77
2018-09-14T20:34:42.848Z,9.43
2018-09-14T20:37:18.334Z,9.03
2018-09-14T20:39:53.552Z,9.57
2018-09-14T20:42:28.059Z,9.33
2018-09-14T20:45:02.829Z,8.83
2018-09-14T20:47:37.199Z,8.83
2018-09-14T20:50:11.817Z,9.00
2018-09-14T20:55:26.072Z,8.63
2018-09-14T20:58:00.619Z,8.83
2018-09-14T21:00:35.164Z,8.60
2018-09-14T21:03:09.765Z,8.47
2018-09-14T21:05:44.260Z,8.90
2018-09-14T21:08:18.665Z,9.10
2018-09-14T21:10:53.496Z,9.17
2018-09-14T21:13:28.240Z,9.00
2018-09-14T21:16:02.652Z,8.37
2018-09-14T21:18:37.346Z,8.43
2018-09-14T21:21:12.379Z,9.00
2018-09-14T21:23:46.699Z,9.53
2018-09-14T21:26:21.719Z,9.93
2018-09-14T21:28:56.291Z,9.30
2018-09-14T21:31:30.909Z,8.97
2018-09-14T21:34:06.121Z,10.23
2018-09-14T21:36:40.408Z,9.80
2018-09-14T21:39:14.708Z,9.80
2018-09-14T21:41:49.476Z,9.93
2018-09-14T21:44:23.921Z,9.73
2018-09-14T21:46:58.271Z,10.13
2018-09-14T21:49:32.807Z,10.50
2018-09-14T21:52:07.488Z,10.07
2018-09-14T21:54:42.032Z,9.63
2018-09-14T21:57:16.340Z,9.97
2018-09-14T21:59:50.976Z,9.47
2018-09-14T22:02:25.916Z,9.43
2018-09-14T22:05:00.840Z,9.40
2018-09-14T22:07:35.171Z,9.33
2018-09-14T22:10:10.149Z,10.10
2018-09-14T22:12:44.527Z,9.07
2018-09-14T22:15:18.864Z,8.53
2018-09-14T22:17:53.492Z,9.10
2018-09-14T22:20:28.645Z,9.40
2018-09-14T22:23:03.404Z,9.07
2018-09-14T22:25:38.276Z,9.87
2018-09-14T22:28:12.884Z,10.23
2018-09-14T22:30:47.432Z,9.47
2018-09-14T22:33:21.759Z,9.40
2018-09-14T22:35:56.394Z,9.90
2018-09-14T22:38:31.293Z,9.50
2018-09-14T22:41:05.642Z,10.20
2018-09-14T22:43:39.952Z,9.93
2018-09-14T22:46:15.116Z,10.03
2018-09-14T22:48:49.812Z,9.90
2018-09-14T22:51:24.397Z,9.17
2018-09-14T22:53:59.072Z,9.83
2018-09-14T22:56:33.504Z,9.77
2018-09-14T22:59:08.789Z,9.90
2018-09-14T23:01:43.435Z,10.00
2018-09-14T23:04:17.907Z,9.23
2018-09-14T23:06:52.640Z,9.70
2018-09-14T23:09:27.145Z,9.93
2018-09-14T23:12:02.775Z,10.13
2018-09-14T23:14:37.847Z,10.40
2018-09-14T23:17:13.416Z,9.63
2018-09-14T23:19:48.120Z,9.00
2018-09-14T23:22:22.796Z,10.10
2018-09-14T23:24:57.539Z,9.77
2018-09-14T23:27:31.961Z,9.53
2018-09-14T23:30:07.591Z,9.50
2018-09-14T23:32:42.391Z,9.27
2018-09-14T23:35:17.335Z,9.03
2018-09-14T23:37:52.100Z,8.90
2018-09-14T23:40:26.510Z,8.77
2018-09-14T23:43:00.933Z,9.27
2018-09-14T23:45:35.871Z,8.63
2018-09-14T23:48:10.536Z,9.00
2018-09-14T23:50:45.456Z,8.43
2018-09-14T23:53:19.801Z,7.80
2018-09-14T23:55:54.378Z,8.10
2018-09-14T23:58:28.925Z,7.93
